sensor_id;sensor_type;location;lat;lon;timestamp;P1;durP1;ratioP1;P2;durP2;ratioP2
26435;SDS011;15351;52.408;16.826;2024-03-25T00:53:00;11.70;;;7.70;;
26435;SDS011;15351;52.408;16.826;2024-03-25T02:57:53;6.40;;;5.80;;
26435;SDS011;15351;52.408;16.826;2024-03-25T05:51:43;7.20;;;6.40;;
26435;SDS011;15351;52.408;16.826;2024-03-25T06:29:07;10.10;;;8.10;;
26435;SDS011;15351;52.408;16.826;2024-03-25T06:32:21;9.20;;;8.00;;
26435;SDS011;15351;52.408;16.826;2024-03-25T06:35:33;8.10;;;6.30;;
26435;SDS011;15351;52.408;16.826;2024-03-25T06:38:59;8.30;;;6.80;;
26435;SDS011;15351;52.408;16.826;2024-03-25T06:41:55;8.80;;;7.30;;
26435;SDS011;15351;52.408;16.826;2024-03-25T06:44:36;8.40;;;7.20;;
26435;SDS011;15351;52.408;16.826;2024-03-25T06:47:39;9.00;;;7.90;;
26435;SDS011;15351;52.408;16.826;2024-03-25T06:50:39;10.00;;;8.90;;
26435;SDS011;15351;52.408;16.826;2024-03-25T06:53:49;11.00;;;9.80;;
26435;SDS011;15351;52.408;16.826;2024-03-25T06:56:34;11.40;;;9.70;;
26435;SDS011;15351;52.408;16.826;2024-03-25T06:59:30;13.30;;;11.20;;
26435;SDS011;15351;52.408;16.826;2024-03-25T07:02:29;14.50;;;12.10;;
26435;SDS011;15351;52.408;16.826;2024-03-25T07:04:59;16.30;;;12.30;;
26435;SDS011;15351;52.408;16.826;2024-03-25T07:07:35;16.90;;;13.30;;
26435;SDS011;15351;52.408;16.826;2024-03-25T07:10:28;17.40;;;14.70;;
26435;SDS011;15351;52.408;16.826;2024-03-25T07:13:21;16.90;;;15.00;;
26435;SDS011;15351;52.408;16.826;2024-03-25T07:16:24;19.00;;;15.60;;
26435;SDS011;15351;52.408;16.826;2024-03-25T07:19:38;18.20;;;16.20;;
26435;SDS011;15351;52.408;16.826;2024-03-25T07:22:29;18.70;;;15.90;;
26435;SDS011;15351;52.408;16.826;2024-03-25T07:25:12;18.90;;;16.00;;
26435;SDS011;15351;52.408;16.826;2024-03-25T07:27:57;16.90;;;15.10;;
26435;SDS011;15351;52.408;16.826;2024-03-25T07:31:07;17.00;;;14.60;;
26435;SDS011;15351;52.408;16.826;2024-03-25T07:34:02;21.40;;;14.90;;
26435;SDS011;15351;52.408;16.826;2024-03-25T07:40:09;15.80;;;14.00;;
26435;SDS011;15351;52.408;16.826;2024-03-25T07:43:07;15.80;;;13.70;;
26435;SDS011;15351;52.408;16.826;2024-03-25T07:45:37;15.50;;;13.00;;
26435;SDS011;15351;52.408;16.826;2024-03-25T07:48:07;15.70;;;12.80;;
26435;SDS011;15351;52.408;16.826;2024-03-25T07:50:58;15.30;;;12.90;;
26435;SDS011;15351;52.408;16.826;2024-03-25T07:57:06;14.90;;;12.90;;
26435;SDS011;15351;52.408;16.826;2024-03-25T07:59:59;14.20;;;12.40;;
26435;SDS011;15351;52.408;16.826;2024-03-25T08:06:04;14.40;;;12.70;;
26435;SDS011;15351;52.408;16.826;2024-03-25T08:12:04;14.20;;;12.30;;
26435;SDS011;15351;52.408;16.826;2024-03-25T08:14:40;13.10;;;11.40;;
26435;SDS011;15351;52.408;16.826;2024-03-25T08:17:10;13.20;;;11.70;;
26435;SDS011;15351;52.408;16.826;2024-03-25T08:19:41;13.30;;;11.60;;
26435;SDS011;15351;52.408;16.826;2024-03-25T08:22:32;13.90;;;11.20;;
26435;SDS011;15351;52.408;16.826;2024-03-25T08:25:30;13.10;;;10.60;;
26435;SDS011;15351;52.408;16.826;2024-03-25T08:28:09;12.10;;;10.40;;
26435;SDS011;15351;52.408;16.826;2024-03-25T08:30:43;11.00;;;9.60;;
26435;SDS011;15351;52.408;16.826;2024-03-25T08:36:42;8.20;;;7.30;;
26435;SDS011;15351;52.408;16.826;2024-03-25T08:39:22;8.00;;;7.20;;
26435;SDS011;15351;52.408;16.826;2024-03-25T08:42:12;10.00;;;8.50;;
26435;SDS011;15351;52.408;16.826;2024-03-25T08:44:58;9.30;;;8.30;;
26435;SDS011;15351;52.408;16.826;2024-03-25T08:48:11;12.30;;;9.90;;
26435;SDS011;15351;52.408;16.826;2024-03-25T08:55:04;12.20;;;9.80;;
26435;SDS011;15351;52.408;16.826;2024-03-25T09:07:34;15.90;;;12.20;;
26435;SDS011;15351;52.408;16.826;2024-03-25T09:17:14;12.00;;;10.50;;
26435;SDS011;15351;52.408;16.826;2024-03-25T09:20:02;12.00;;;10.70;;
26435;SDS011;15351;52.408;16.826;2024-03-25T09:23:26;13.10;;;11.40;;
26435;SDS011;15351;52.408;16.826;2024-03-25T09:26:20;12.50;;;11.20;;
26435;SDS011;15351;52.408;16.826;2024-03-25T09:29:15;12.70;;;11.10;;
26435;SDS011;15351;52.408;16.826;2024-03-25T09:32:16;12.80;;;11.30;;
26435;SDS011;15351;52.408;16.826;2024-03-25T09:34:57;12.80;;;11.30;;
26435;SDS011;15351;52.408;16.826;2024-03-25T09:37:55;12.60;;;11.10;;
26435;SDS011;15351;52.408;16.826;2024-03-25T09:40:40;11.40;;;10.20;;
26435;SDS011;15351;52.408;16.826;2024-03-25T09:44:23;9.60;;;8.60;;
26435;SDS011;15351;52.408;16.826;2024-03-25T09:47:19;10.90;;;9.70;;
26435;SDS011;15351;52.408;16.826;2024-03-25T09:49:59;12.10;;;10.80;;
26435;SDS011;15351;52.408;16.826;2024-03-25T09:53:05;13.30;;;11.20;;
26435;SDS011;15351;52.408;16.826;2024-03-25T09:58:57;15.80;;;13.10;;
26435;SDS011;15351;52.408;16.826;2024-03-25T10:02:06;14.20;;;12.70;;
26435;SDS011;15351;52.408;16.826;2024-03-25T10:04:57;15.00;;;13.40;;
26435;SDS011;15351;52.408;16.826;2024-03-25T10:08:10;15.30;;;13.50;;
26435;SDS011;15351;52.408;16.826;2024-03-25T10:13:52;17.10;;;15.00;;
26435;SDS011;15351;52.408;16.826;2024-03-25T10:16:40;17.60;;;15.70;;
26435;SDS011;15351;52.408;16.826;2024-03-25T10:19:34;16.10;;;14.40;;
26435;SDS011;15351;52.408;16.826;2024-03-25T10:25:20;17.60;;;15.80;;
26435;SDS011;15351;52.408;16.826;2024-03-25T10:28:09;17.20;;;15.10;;
26435;SDS011;15351;52.408;16.826;2024-03-25T10:31:03;15.50;;;13.90;;
26435;SDS011;15351;52.408;16.826;2024-03-25T10:33:43;13.30;;;11.90;;
26435;SDS011;15351;52.408;16.826;2024-03-25T10:36:22;13.40;;;12.10;;
26435;SDS011;15351;52.408;16.826;2024-03-25T10:39:30;11.70;;;10.50;;
26435;SDS011;15351;52.408;16.826;2024-03-25T10:42:22;11.70;;;10.50;;
26435;SDS011;15351;52.408;16.826;2024-03-25T10:45:06;11.60;;;10.40;;
26435;SDS011;15351;52.408;16.826;2024-03-25T11:15:18;5.20;;;4.70;;
26435;SDS011;15351;52.408;16.826;2024-03-25T11:18:13;5.00;;;4.50;;
26435;SDS011;15351;52.408;16.826;2024-03-25T11:24:32;7.00;;;6.00;;
26435;SDS011;15351;52.408;16.826;2024-03-25T11:27:08;7.00;;;5.80;;
26435;SDS011;15351;52.408;16.826;2024-03-25T11:30:35;7.10;;;5.90;;
26435;SDS011;15351;52.408;16.826;2024-03-25T11:33:40;6.30;;;5.20;;
26435;SDS011;15351;52.408;16.826;2024-03-25T11:36:31;6.10;;;5.20;;
26435;SDS011;15351;52.408;16.826;2024-03-25T11:39:49;7.00;;;6.30;;
26435;SDS011;15351;52.408;16.826;2024-03-25T11:43:27;6.60;;;6.00;;
26435;SDS011;15351;52.408;16.826;2024-03-25T11:50:18;5.30;;;4.80;;
26435;SDS011;15351;52.408;16.826;2024-03-25T11:56:27;4.90;;;4.40;;
26435;SDS011;15351;52.408;16.826;2024-03-25T11:59:06;5.80;;;4.70;;
26435;SDS011;15351;52.408;16.826;2024-03-25T12:01:43;7.00;;;5.00;;
26435;SDS011;15351;52.408;16.826;2024-03-25T12:04:31;4.20;;;3.70;;
26435;SDS011;15351;52.408;16.826;2024-03-25T12:07:10;3.70;;;3.10;;
26435;SDS011;15351;52.408;16.826;2024-03-25T12:09:58;6.40;;;3.80;;
26435;SDS011;15351;52.408;16.826;2024-03-25T12:13:02;6.70;;;4.90;;
26435;SDS011;15351;52.408;16.826;2024-03-25T12:15:38;5.60;;;4.70;;
26435;SDS011;15351;52.408;16.826;2024-03-25T12:18:18;5.40;;;4.60;;
26435;SDS011;15351;52.408;16.826;2024-03-25T12:21:37;4.20;;;3.80;;
26435;SDS011;15351;52.408;16.826;2024-03-25T12:24:24;4.20;;;3.80;;
26435;SDS011;15351;52.408;16.826;2024-03-25T12:30:26;5.40;;;4.50;;
26435;SDS011;15351;52.408;16.826;2024-03-25T12:33:03;5.30;;;4.80;;
26435;SDS011;15351;52.408;16.826;2024-03-25T12:35:36;6.30;;;5.50;;
26435;SDS011;15351;52.408;16.826;2024-03-25T12:38:03;8.10;;;6.50;;
26435;SDS011;15351;52.408;16.826;2024-03-25T12:43:46;8.80;;;7.20;;
26435;SDS011;15351;52.408;16.826;2024-03-25T12:49:30;6.70;;;4.00;;
26435;SDS011;15351;52.408;16.826;2024-03-25T12:55:17;3.70;;;3.40;;
26435;SDS011;15351;52.408;16.826;2024-03-25T12:57:48;4.20;;;3.70;;
26435;SDS011;15351;52.408;16.826;2024-03-25T18:07:33;16.50;;;11.40;;
26435;SDS011;15351;52.408;16.826;2024-03-25T18:40:05;15.10;;;11.70;;
26435;SDS011;15351;52.408;16.826;2024-03-25T18:42:49;14.80;;;11.80;;
26435;SDS011;15351;52.408;16.826;2024-03-25T18:45:18;16.60;;;12.00;;
26435;SDS011;15351;52.408;16.826;2024-03-25T18:47:58;16.80;;;12.90;;
26435;SDS011;15351;52.408;16.826;2024-03-25T18:53:40;18.60;;;14.60;;
26435;SDS011;15351;52.408;16.826;2024-03-25T18:56:10;17.90;;;14.30;;
26435;SDS011;15351;52.408;16.826;2024-03-25T18:58:48;20.60;;;15.20;;
26435;SDS011;15351;52.408;16.826;2024-03-25T19:07:16;62.60;;;50.30;;
26435;SDS011;15351;52.408;16.826;2024-03-25T19:09:52;37.50;;;29.50;;
26435;SDS011;15351;52.408;16.826;2024-03-25T19:12:21;38.40;;;27.50;;
26435;SDS011;15351;52.408;16.826;2024-03-25T19:14:53;41.10;;;30.50;;
26435;SDS011;15351;52.408;16.826;2024-03-25T19:20:45;36.10;;;26.30;;
26435;SDS011;15351;52.408;16.826;2024-03-25T19:23:26;39.80;;;28.30;;
26435;SDS011;15351;52.408;16.826;2024-03-25T19:26:44;45.60;;;34.00;;
26435;SDS011;15351;52.408;16.826;2024-03-25T19:29:30;35.40;;;26.30;;
26435;SDS011;15351;52.408;16.826;2024-03-25T19:35:48;59.90;;;35.00;;
26435;SDS011;15351;52.408;16.826;2024-03-25T19:38:20;81.10;;;43.40;;
26435;SDS011;15351;52.408;16.826;2024-03-25T19:41:03;110.40;;;54.40;;
26435;SDS011;15351;52.408;16.826;2024-03-25T19:46:48;116.20;;;57.30;;
26435;SDS011;15351;52.408;16.826;2024-03-25T19:53:33;130.60;;;69.40;;
26435;SDS011;15351;52.408;16.826;2024-03-25T19:56:20;129.70;;;69.50;;
26435;SDS011;15351;52.408;16.826;2024-03-25T19:59:03;118.90;;;64.80;;
26435;SDS011;15351;52.408;16.826;2024-03-25T20:05:24;112.30;;;63.10;;
26435;SDS011;15351;52.408;16.826;2024-03-25T20:12:19;61.10;;;36.20;;
26435;SDS011;15351;52.408;16.826;2024-03-25T20:16:06;50.90;;;31.30;;
26435;SDS011;15351;52.408;16.826;2024-03-25T20:19:13;57.70;;;35.90;;
26435;SDS011;15351;52.408;16.826;2024-03-25T20:24:32;51.70;;;33.60;;
26435;SDS011;15351;52.408;16.826;2024-03-25T20:27:29;66.20;;;41.70;;
26435;SDS011;15351;52.408;16.826;2024-03-25T20:34:14;56.40;;;36.10;;
26435;SDS011;15351;52.408;16.826;2024-03-25T20:47:37;102.60;;;53.00;;
26435;SDS011;15351;52.408;16.826;2024-03-25T20:50:20;192.30;;;83.70;;
26435;SDS011;15351;52.408;16.826;2024-03-25T20:59:54;56.10;;;33.50;;
26435;SDS011;15351;52.408;16.826;2024-03-25T21:17:41;61.90;;;38.00;;
26435;SDS011;15351;52.408;16.826;2024-03-25T21:20:14;54.30;;;34.10;;
26435;SDS011;15351;52.408;16.826;2024-03-25T21:32:30;53.10;;;33.40;;
26435;SDS011;15351;52.408;16.826;2024-03-25T21:35:14;55.70;;;34.00;;
26435;SDS011;15351;52.408;16.826;2024-03-25T21:37:55;55.00;;;36.00;;
26435;SDS011;15351;52.408;16.826;2024-03-25T21:44:31;49.80;;;31.50;;
26435;SDS011;15351;52.408;16.826;2024-03-25T21:47:15;48.10;;;29.70;;
26435;SDS011;15351;52.408;16.826;2024-03-25T21:49:56;47.40;;;29.50;;
26435;SDS011;15351;52.408;16.826;2024-03-25T21:52:37;53.00;;;33.20;;
26435;SDS011;15351;52.408;16.826;2024-03-25T21:58:28;51.60;;;32.80;;
26435;SDS011;15351;52.408;16.826;2024-03-25T22:01:24;50.90;;;32.60;;
26435;SDS011;15351;52.408;16.826;2024-03-25T22:07:28;43.90;;;29.00;;
26435;SDS011;15351;52.408;16.826;2024-03-25T22:10:10;41.40;;;28.10;;
26435;SDS011;15351;52.408;16.826;2024-03-25T22:16:30;38.60;;;23.70;;
26435;SDS011;15351;52.408;16.826;2024-03-25T22:19:04;33.90;;;23.50;;
26435;SDS011;15351;52.408;16.826;2024-03-25T22:21:31;34.00;;;23.30;;
26435;SDS011;15351;52.408;16.826;2024-03-25T22:24:50;34.20;;;22.80;;
26435;SDS011;15351;52.408;16.826;2024-03-25T22:27:26;33.30;;;22.10;;
26435;SDS011;15351;52.408;16.826;2024-03-25T22:29:53;31.20;;;21.30;;
26435;SDS011;15351;52.408;16.826;2024-03-25T22:32:23;31.90;;;20.70;;
26435;SDS011;15351;52.408;16.826;2024-03-25T22:35:19;31.70;;;20.70;;
26435;SDS011;15351;52.408;16.826;2024-03-25T22:37:51;34.00;;;21.60;;
26435;SDS011;15351;52.408;16.826;2024-03-25T22:40:44;33.50;;;21.60;;
26435;SDS011;15351;52.408;16.826;2024-03-25T22:43:28;32.20;;;20.60;;
26435;SDS011;15351;52.408;16.826;2024-03-25T22:46:27;30.60;;;20.50;;
26435;SDS011;15351;52.408;16.826;2024-03-25T22:49:07;35.50;;;23.00;;
26435;SDS011;15351;52.408;16.826;2024-03-25T22:54:35;44.30;;;26.80;;
26435;SDS011;15351;52.408;16.826;2024-03-25T22:57:08;44.40;;;28.80;;
26435;SDS011;15351;52.408;16.826;2024-03-25T23:02:54;39.80;;;25.40;;
26435;SDS011;15351;52.408;16.826;2024-03-25T23:05:21;37.30;;;22.90;;
